Crystal Lake Park, Missouri
Current Conditions -  °F | °C
As of 1:51 AM on Saturday 20 Dec 2014 (Local Time) from KSTL Reporting Station
Overcast Overcast  
Wind Chill: 31°   Ceiling: 2800
Heat Index: 36°   Visibility: 8mi
Dew Point: 26°   Wind: 6mph
Humidity: 67%   Direction: 140°SE
Pressure: 30.26"   Gusts: NA
Location:  38.6172°N, 90.4443°W
Report Text: KSTL 200751Z 14005KT 8SM OVC028 02/M03 A3026 RMK AO2 SLP255 T00221033
Loading
Personal Weather Stations






























Interactive Weather Map New forecast layout! Learn more

10-Day Weather Forecast

Advertisements
Track Severe Weather on mobile